createdAt,value
2017-03-03T00:00:18.050Z,1006.68
2017-03-03T00:01:18.031Z,1006.72
2017-03-03T00:02:18.011Z,1006.7
2017-03-03T00:03:17.990Z,1006.68
2017-03-03T00:04:17.973Z,1006.65
2017-03-03T00:05:17.954Z,1006.66
2017-03-03T00:06:17.936Z,1006.67
2017-03-03T00:07:17.913Z,1006.66
2017-03-03T00:08:17.896Z,1006.68
2017-03-03T00:09:17.875Z,1006.61
2017-03-03T00:10:17.857Z,1006.6
2017-03-03T00:11:17.839Z,1006.62
2017-03-03T00:12:17.819Z,1006.53
2017-03-03T00:13:17.799Z,1006.56
2017-03-03T00:14:17.779Z,1006.52
2017-03-03T00:15:17.760Z,1006.53
2017-03-03T00:16:17.739Z,1006.5
2017-03-03T00:17:17.719Z,1006.49
2017-03-03T00:18:17.701Z,1006.47
2017-03-03T00:19:17.678Z,1006.5
2017-03-03T00:20:17.659Z,1006.53
2017-03-03T00:21:17.639Z,1006.49
2017-03-03T00:22:17.620Z,1006.47
2017-03-03T00:23:17.600Z,1006.46
2017-03-03T00:24:17.580Z,1006.44
2017-03-03T00:25:17.561Z,1006.42
2017-03-03T00:26:17.543Z,1006.45
2017-03-03T00:27:17.523Z,1006.42
2017-03-03T00:28:17.502Z,1006.42
2017-03-03T00:29:17.483Z,1006.45
2017-03-03T00:30:17.462Z,1006.44
2017-03-03T00:31:17.443Z,1006.49
2017-03-03T00:32:17.422Z,1006.44
2017-03-03T00:33:17.405Z,1006.41
2017-03-03T00:34:17.384Z,1006.39
2017-03-03T00:35:17.365Z,1006.36
2017-03-03T00:36:17.345Z,1006.4
2017-03-03T00:37:17.326Z,1006.39
2017-03-03T00:38:17.307Z,1006.38
2017-03-03T00:39:17.286Z,1006.39
2017-03-03T00:40:17.268Z,1006.42
2017-03-03T00:41:17.249Z,1006.38
2017-03-03T00:42:17.229Z,1006.4
2017-03-03T00:43:17.207Z,1006.34
2017-03-03T00:44:17.190Z,1006.36
2017-03-03T00:45:17.168Z,1006.33
2017-03-03T00:46:17.150Z,1006.34
2017-03-03T00:47:17.129Z,1006.33
2017-03-03T00:48:17.110Z,1006.33
2017-03-03T00:49:17.090Z,1006.34
2017-03-03T00:50:17.070Z,1006.35
2017-03-03T00:51:17.048Z,1006.37
2017-03-03T00:52:17.031Z,1006.36
2017-03-03T00:53:17.215Z,1006.33
2017-03-03T00:54:16.991Z,1006.31
2017-03-03T00:55:16.973Z,1006.3
2017-03-03T00:56:16.952Z,1006.28
2017-03-03T00:57:16.933Z,1006.28
2017-03-03T00:58:16.911Z,1006.31
2017-03-03T00:59:16.908Z,1006.3
2017-03-03T01:00:17.076Z,1006.27
2017-03-03T01:01:16.852Z,1006.3
2017-03-03T01:02:16.833Z,1006.28
2017-03-03T01:03:16.814Z,1006.26
2017-03-03T01:04:16.794Z,1006.25
2017-03-03T01:05:16.773Z,1006.2
2017-03-03T01:06:16.753Z,1006.21
2017-03-03T01:07:16.735Z,1006.2
2017-03-03T01:08:16.715Z,1006.18
2017-03-03T01:09:16.692Z,1006.17
2017-03-03T01:10:16.674Z,1006.16
2017-03-03T01:11:16.656Z,1006.14
2017-03-03T01:12:16.634Z,1006.17
2017-03-03T01:13:16.614Z,1006.16
2017-03-03T01:14:16.595Z,1006.12
2017-03-03T01:15:16.575Z,1006.14
2017-03-03T01:16:16.560Z,1006.15
2017-03-03T01:17:16.538Z,1006.14
2017-03-03T01:18:16.515Z,1006.12
2017-03-03T01:19:16.497Z,1006.12
2017-03-03T01:20:16.477Z,1006.13
2017-03-03T01:21:16.456Z,1006.13
2017-03-03T01:22:16.435Z,1006.09
2017-03-03T01:23:16.414Z,1006.12
2017-03-03T01:24:16.396Z,1006.06
2017-03-03T01:25:16.394Z,1006.03
2017-03-03T01:26:16.355Z,1006.05
2017-03-03T01:27:16.335Z,1006.06
2017-03-03T01:28:16.315Z,1006.09
2017-03-03T01:29:16.297Z,1006.13
2017-03-03T01:30:16.276Z,1006.07
2017-03-03T01:31:16.256Z,1006.08
2017-03-03T01:32:16.236Z,1006.09
2017-03-03T01:33:16.217Z,1006.07
2017-03-03T01:34:16.197Z,1006.1
2017-03-03T01:35:16.177Z,1006.02
2017-03-03T01:36:16.158Z,1006.06
2017-03-03T01:37:16.136Z,1006
2017-03-03T01:38:16.117Z,1006.07
2017-03-03T01:39:16.097Z,1006.03
2017-03-03T01:40:16.077Z,1006.03
2017-03-03T01:41:16.056Z,1005.98
2017-03-03T01:42:16.037Z,1005.98
2017-03-03T01:43:16.017Z,1006.01
2017-03-03T01:44:15.998Z,1005.98
2017-03-03T01:45:15.976Z,1006.03
2017-03-03T01:46:16.257Z,1006
2017-03-03T01:47:15.936Z,1006
2017-03-03T01:48:15.915Z,1005.96
2017-03-03T01:49:15.900Z,1005.92
2017-03-03T01:50:15.876Z,1005.95
2017-03-03T01:51:15.857Z,1005.93
2017-03-03T01:52:15.836Z,1005.94
2017-03-03T01:53:15.816Z,1005.92
2017-03-03T01:54:15.796Z,1005.93
2017-03-03T01:55:15.778Z,1005.89
2017-03-03T01:56:15.754Z,1005.86
2017-03-03T01:57:15.736Z,1005.87
2017-03-03T01:58:15.718Z,1005.88
2017-03-03T01:59:15.695Z,1005.86
2017-03-03T02:00:15.675Z,1005.86
2017-03-03T02:01:15.657Z,1005.84
2017-03-03T02:02:15.639Z,1005.84
2017-03-03T02:03:15.615Z,1005.78
2017-03-03T02:04:15.596Z,1005.8
2017-03-03T02:05:15.578Z,1005.8
2017-03-03T02:06:15.555Z,1005.8
2017-03-03T02:07:15.535Z,1005.8
2017-03-03T02:08:15.517Z,1005.8
2017-03-03T02:09:15.495Z,1005.79
2017-03-03T02:10:15.475Z,1005.83
2017-03-03T02:11:15.454Z,1005.86
2017-03-03T02:12:15.434Z,1005.79
2017-03-03T02:13:15.415Z,1005.81
2017-03-03T02:14:15.393Z,1005.8
2017-03-03T02:15:15.374Z,1005.79
2017-03-03T02:16:15.354Z,1005.79
2017-03-03T02:17:15.336Z,1005.79
2017-03-03T02:18:15.314Z,1005.79
2017-03-03T02:19:15.296Z,1005.72
2017-03-03T02:20:15.279Z,1005.68
2017-03-03T02:21:15.258Z,1005.69
2017-03-03T02:22:15.237Z,1005.67
2017-03-03T02:23:15.212Z,1005.7
2017-03-03T02:24:15.192Z,1005.69
2017-03-03T02:25:15.171Z,1005.66
2017-03-03T02:26:15.151Z,1005.66
2017-03-03T02:27:15.134Z,1005.7
2017-03-03T02:28:15.111Z,1005.65
2017-03-03T02:29:15.092Z,1005.66
2017-03-03T02:30:15.072Z,1005.63
2017-03-03T02:31:15.053Z,1005.66
2017-03-03T02:32:15.030Z,1005.68
2017-03-03T02:33:15.011Z,1005.68
2017-03-03T02:34:14.991Z,1005.65
2017-03-03T02:35:14.971Z,1005.58
2017-03-03T02:36:14.949Z,1005.64
2017-03-03T02:37:14.929Z,1005.58
2017-03-03T02:38:14.910Z,1005.56
2017-03-03T02:39:14.887Z,1005.57
2017-03-03T02:40:14.871Z,1005.52
2017-03-03T02:41:14.848Z,1005.48
2017-03-03T02:42:14.828Z,1005.46
2017-03-03T02:43:14.808Z,1005.48
2017-03-03T02:44:14.787Z,1005.45
2017-03-03T02:45:14.766Z,1005.49
2017-03-03T02:46:14.747Z,1005.5
2017-03-03T02:47:14.726Z,1005.47
2017-03-03T02:48:14.705Z,1005.48
2017-03-03T02:49:14.688Z,1005.4
2017-03-03T02:50:14.665Z,1005.41
2017-03-03T02:51:14.646Z,1005.37
2017-03-03T02:52:14.626Z,1005.38
2017-03-03T02:53:14.808Z,1005.31
2017-03-03T02:54:14.586Z,1005.28
2017-03-03T02:55:14.564Z,1005.27
2017-03-03T02:56:14.543Z,1005.32
2017-03-03T02:57:14.524Z,1005.32
2017-03-03T02:58:14.501Z,1005.28
2017-03-03T02:59:14.482Z,1005.25
2017-03-03T03:00:14.462Z,1005.23
2017-03-03T03:01:14.442Z,1005.18
2017-03-03T03:02:14.423Z,1005.2
2017-03-03T03:03:14.401Z,1005.2
2017-03-03T03:04:14.381Z,1005.23
2017-03-03T03:05:14.362Z,1005.26
2017-03-03T03:06:14.343Z,1005.28
2017-03-03T03:07:14.324Z,1005.27
2017-03-03T03:08:14.302Z,1005.23
2017-03-03T03:09:14.279Z,1005.23
2017-03-03T03:10:14.260Z,1005.21
2017-03-03T03:11:14.239Z,1005.15
2017-03-03T03:12:14.219Z,1005.14
2017-03-03T03:13:14.197Z,1005.13
2017-03-03T03:14:14.193Z,1005.14
2017-03-03T03:15:14.160Z,1005.14
2017-03-03T03:16:14.135Z,1005.08
2017-03-03T03:17:14.117Z,1005.06
2017-03-03T03:18:14.095Z,1005.04
2017-03-03T03:19:14.076Z,1005
2017-03-03T03:20:14.054Z,1005.01
2017-03-03T03:21:14.033Z,1005.01
2017-03-03T03:22:14.015Z,1005.02
2017-03-03T03:23:13.993Z,1004.96
2017-03-03T03:24:13.970Z,1004.95
2017-03-03T03:25:13.956Z,1004.89
2017-03-03T03:26:13.936Z,1004.86
2017-03-03T03:27:13.912Z,1004.85
2017-03-03T03:28:13.890Z,1004.85
2017-03-03T03:29:13.869Z,1004.81
2017-03-03T03:30:13.848Z,1004.82
2017-03-03T03:31:13.828Z,1004.78
2017-03-03T03:32:13.808Z,1004.81
2017-03-03T03:33:13.788Z,1004.82
2017-03-03T03:34:13.765Z,1004.81
2017-03-03T03:35:13.745Z,1004.81
2017-03-03T03:36:13.725Z,1004.76
2017-03-03T03:37:13.704Z,1004.77
2017-03-03T03:38:13.682Z,1004.78
2017-03-03T03:39:13.664Z,1004.69
2017-03-03T03:40:13.642Z,1004.69
2017-03-03T03:41:13.622Z,1004.73
2017-03-03T03:42:13.599Z,1004.74
2017-03-03T03:43:13.578Z,1004.76
2017-03-03T03:44:13.557Z,1004.74
2017-03-03T03:45:13.538Z,1004.72
2017-03-03T03:46:13.520Z,1004.72
2017-03-03T03:47:13.496Z,1004.7
2017-03-03T03:48:13.476Z,1004.76
2017-03-03T03:49:13.454Z,1004.74
2017-03-03T03:50:13.433Z,1004.75
2017-03-03T03:51:13.412Z,1004.72
2017-03-03T03:52:13.392Z,1004.7
2017-03-03T03:53:13.370Z,1004.71
2017-03-03T03:54:13.350Z,1004.73
2017-03-03T03:55:13.328Z,1004.73
2017-03-03T03:56:13.307Z,1004.7
2017-03-03T03:57:13.286Z,1004.68
2017-03-03T03:58:13.266Z,1004.67
2017-03-03T03:59:13.245Z,1004.67
2017-03-03T04:00:13.227Z,1004.67
2017-03-03T04:01:13.205Z,1004.63
2017-03-03T04:02:13.185Z,1004.63
2017-03-03T04:03:13.164Z,1004.54
2017-03-03T04:04:13.142Z,1004.55
2017-03-03T04:05:13.119Z,1004.54
2017-03-03T04:06:13.117Z,1004.52
2017-03-03T04:07:13.079Z,1004.5
2017-03-03T04:08:13.058Z,1004.48
2017-03-03T04:09:13.038Z,1004.45
2017-03-03T04:10:13.015Z,1004.42
2017-03-03T04:11:12.993Z,1004.37
2017-03-03T04:12:12.972Z,1004.34
2017-03-03T04:13:12.952Z,1004.35
2017-03-03T04:14:12.930Z,1004.3
2017-03-03T04:15:12.909Z,1004.33
2017-03-03T04:16:12.889Z,1004.3
2017-03-03T04:17:12.865Z,1004.35
2017-03-03T04:18:12.847Z,1004.32
2017-03-03T04:19:12.824Z,1004.32
2017-03-03T04:20:12.803Z,1004.33
2017-03-03T04:21:12.781Z,1004.3
2017-03-03T04:22:12.760Z,1004.31
2017-03-03T04:23:12.740Z,1004.27
2017-03-03T04:24:12.718Z,1004.26
2017-03-03T04:25:12.696Z,1004.22
2017-03-03T04:26:12.675Z,1004.23
2017-03-03T04:27:12.676Z,1004.21
2017-03-03T04:28:12.635Z,1004.17
2017-03-03T04:29:12.616Z,1004.17
2017-03-03T04:30:12.590Z,1004.19
2017-03-03T04:31:12.579Z,1004.16
2017-03-03T04:32:12.553Z,1004.14
2017-03-03T04:33:12.527Z,1004.14
2017-03-03T04:34:12.507Z,1004.1
2017-03-03T04:35:12.485Z,1004.09
2017-03-03T04:36:12.467Z,1004.07
2017-03-03T04:37:12.441Z,1004.02
2017-03-03T04:38:12.422Z,1003.99
2017-03-03T04:39:12.401Z,1004.01
2017-03-03T04:40:12.377Z,1003.98
2017-03-03T04:41:12.358Z,1004.01
2017-03-03T04:42:12.336Z,1003.96
2017-03-03T04:43:12.316Z,1003.91
2017-03-03T04:44:12.293Z,1003.92
2017-03-03T04:45:12.273Z,1003.9
2017-03-03T04:46:12.252Z,1003.91
2017-03-03T04:47:12.228Z,1003.92
2017-03-03T04:48:12.211Z,1003.95
2017-03-03T04:49:12.187Z,1003.9
2017-03-03T04:50:12.217Z,1003.89
2017-03-03T04:51:12.145Z,1003.84
2017-03-03T04:52:12.125Z,1003.86
2017-03-03T04:53:12.101Z,1003.88
2017-03-03T04:54:12.082Z,1003.82
2017-03-03T04:55:12.060Z,1003.81
2017-03-03T04:56:12.037Z,1003.76
2017-03-03T04:57:12.019Z,1003.77
2017-03-03T04:58:11.996Z,1003.78
2017-03-03T04:59:11.975Z,1003.78
2017-03-03T05:00:11.953Z,1003.77
2017-03-03T05:01:11.934Z,1003.81
2017-03-03T05:02:11.912Z,1003.79
2017-03-03T05:03:11.890Z,1003.77
2017-03-03T05:04:11.869Z,1003.7
2017-03-03T05:05:11.848Z,1003.67
2017-03-03T05:06:11.826Z,1003.65
2017-03-03T05:07:11.805Z,1003.64
2017-03-03T05:08:11.785Z,1003.67
2017-03-03T05:09:11.763Z,1003.59
2017-03-03T05:10:11.742Z,1003.6
2017-03-03T05:11:11.721Z,1003.57
2017-03-03T05:12:11.700Z,1003.54
2017-03-03T05:13:11.679Z,1003.57
2017-03-03T05:14:11.657Z,1003.6
2017-03-03T05:15:11.636Z,1003.58
2017-03-03T05:16:11.616Z,1003.57
2017-03-03T05:17:11.595Z,1003.5
2017-03-03T05:18:11.573Z,1003.5
2017-03-03T05:19:11.553Z,1003.48
2017-03-03T05:20:11.530Z,1003.46
2017-03-03T05:21:11.509Z,1003.49
2017-03-03T05:22:11.488Z,1003.49
2017-03-03T05:23:11.467Z,1003.49
2017-03-03T05:24:11.446Z,1003.46
2017-03-03T05:25:11.426Z,1003.45
2017-03-03T05:26:11.404Z,1003.46
2017-03-03T05:27:11.384Z,1003.44
2017-03-03T05:28:11.362Z,1003.44
2017-03-03T05:29:11.341Z,1003.45
2017-03-03T05:30:11.322Z,1003.42
2017-03-03T05:31:11.300Z,1003.38
2017-03-03T05:32:11.279Z,1003.41
2017-03-03T05:33:11.258Z,1003.41
2017-03-03T05:34:11.237Z,1003.37
2017-03-03T05:35:11.215Z,1003.34
2017-03-03T05:36:11.195Z,1003.35
2017-03-03T05:37:11.173Z,1003.33
2017-03-03T05:38:11.155Z,1003.33
2017-03-03T05:39:11.133Z,1003.31
2017-03-03T05:40:11.113Z,1003.31
2017-03-03T05:41:11.100Z,1003.3
2017-03-03T05:42:11.068Z,1003.31
2017-03-03T05:43:11.047Z,1003.29
2017-03-03T05:44:11.031Z,1003.32
2017-03-03T05:45:11.006Z,1003.33
2017-03-03T05:46:10.983Z,1003.36
2017-03-03T05:47:10.978Z,1003.39
2017-03-03T05:48:10.943Z,1003.39
2017-03-03T05:49:10.919Z,1003.41
2017-03-03T05:50:10.899Z,1003.35
2017-03-03T05:51:10.878Z,1003.36
2017-03-03T05:52:10.858Z,1003.33
2017-03-03T05:53:10.837Z,1003.31
2017-03-03T05:54:10.814Z,1003.28
2017-03-03T05:55:10.795Z,1003.28
2017-03-03T05:56:10.772Z,1003.28
2017-03-03T05:57:10.751Z,1003.25
2017-03-03T05:58:10.730Z,1003.22
2017-03-03T05:59:10.711Z,1003.24
2017-03-03T06:00:10.688Z,1003.24
2017-03-03T06:01:10.667Z,1003.19
2017-03-03T06:02:10.647Z,1003.18
2017-03-03T06:03:10.625Z,1003.19
2017-03-03T06:04:10.603Z,1003.12
2017-03-03T06:05:10.582Z,1003.11
2017-03-03T06:06:10.562Z,1003.07
2017-03-03T06:07:10.541Z,1003.05
2017-03-03T06:08:10.518Z,1003
2017-03-03T06:09:10.502Z,1003
2017-03-03T06:10:10.478Z,1002.97
2017-03-03T06:11:10.455Z,1002.98
2017-03-03T06:12:10.435Z,1002.96
2017-03-03T06:13:10.415Z,1003
2017-03-03T06:14:10.393Z,1002.98
2017-03-03T06:15:10.371Z,1003.01
2017-03-03T06:16:10.350Z,1002.94
2017-03-03T06:17:10.329Z,1002.92
2017-03-03T06:18:10.309Z,1002.96
2017-03-03T06:19:10.285Z,1002.95
2017-03-03T06:20:10.265Z,1002.91
2017-03-03T06:21:10.245Z,1002.9
2017-03-03T06:22:10.223Z,1002.9
2017-03-03T06:23:10.201Z,1002.9
2017-03-03T06:24:10.180Z,1002.91
2017-03-03T06:25:10.160Z,1002.91
2017-03-03T06:26:10.137Z,1002.95
2017-03-03T06:27:10.118Z,1002.97
2017-03-03T06:28:10.095Z,1003
2017-03-03T06:29:10.079Z,1002.98
2017-03-03T06:30:10.082Z,1002.95
2017-03-03T06:31:10.034Z,1002.93
2017-03-03T06:32:10.012Z,1002.97
2017-03-03T06:33:09.990Z,1002.96
2017-03-03T06:34:09.967Z,1002.96
2017-03-03T06:35:09.947Z,1002.97
2017-03-03T06:36:09.927Z,1002.94
2017-03-03T06:37:09.903Z,1002.95
2017-03-03T06:38:09.883Z,1002.93
2017-03-03T06:39:09.862Z,1002.93
2017-03-03T06:40:09.839Z,1002.86
2017-03-03T06:41:09.819Z,1002.92
2017-03-03T06:42:09.796Z,1002.87
2017-03-03T06:43:09.776Z,1002.89
2017-03-03T06:44:09.756Z,1002.89
2017-03-03T06:45:09.733Z,1002.91
2017-03-03T06:46:09.713Z,1002.93
2017-03-03T06:47:09.692Z,1002.87
2017-03-03T06:48:09.672Z,1002.85
2017-03-03T06:49:09.652Z,1002.86
2017-03-03T06:50:09.628Z,1002.83
2017-03-03T06:51:09.611Z,1002.86
2017-03-03T06:52:09.585Z,1002.86
2017-03-03T06:53:09.565Z,1002.88
2017-03-03T06:54:09.746Z,1002.87
2017-03-03T06:55:09.519Z,1002.85
2017-03-03T06:56:09.501Z,1002.81
2017-03-03T06:57:09.481Z,1002.84
2017-03-03T06:58:09.459Z,1002.84
2017-03-03T06:59:09.438Z,1002.77
2017-03-03T07:00:09.420Z,1002.84
2017-03-03T07:01:09.395Z,1002.83
2017-03-03T07:02:09.375Z,1002.83
2017-03-03T07:03:09.356Z,1002.83
2017-03-03T07:04:09.333Z,1002.81
2017-03-03T07:05:09.313Z,1002.79
2017-03-03T07:06:09.292Z,1002.79
2017-03-03T07:07:09.270Z,1002.76
2017-03-03T07:08:09.251Z,1002.8
2017-03-03T07:09:09.230Z,1002.78
2017-03-03T07:10:09.207Z,1002.81
2017-03-03T07:11:09.188Z,1002.84
2017-03-03T07:12:09.166Z,1002.8
2017-03-03T07:13:09.145Z,1002.85
2017-03-03T07:14:09.125Z,1002.84
2017-03-03T07:15:09.103Z,1002.9
2017-03-03T07:16:09.084Z,1002.91
2017-03-03T07:17:09.061Z,1002.87
2017-03-03T07:18:09.044Z,1002.85
2017-03-03T07:19:09.023Z,1002.83
2017-03-03T07:20:09.000Z,1002.83
2017-03-03T07:21:08.981Z,1002.85
2017-03-03T07:22:08.960Z,1002.84
2017-03-03T07:23:08.942Z,1002.81
2017-03-03T07:24:08.922Z,1002.88
2017-03-03T07:25:08.899Z,1002.86
2017-03-03T07:26:08.879Z,1002.85
2017-03-03T07:27:08.859Z,1002.79
2017-03-03T07:28:08.840Z,1002.79
2017-03-03T07:29:08.837Z,1002.78
2017-03-03T07:30:08.800Z,1002.84
2017-03-03T07:31:08.779Z,1002.88
2017-03-03T07:32:08.757Z,1002.93
2017-03-03T07:33:08.736Z,1002.94
2017-03-03T07:34:08.718Z,1002.95
2017-03-03T07:35:08.697Z,1002.96
2017-03-03T07:36:08.730Z,1002.96
2017-03-03T07:37:08.657Z,1002.96
2017-03-03T07:38:08.637Z,1002.92
2017-03-03T07:39:08.617Z,1002.92
2017-03-03T07:40:08.599Z,1002.91
2017-03-03T07:41:08.577Z,1002.9
2017-03-03T07:42:08.557Z,1002.9
2017-03-03T07:43:08.537Z,1002.89
2017-03-03T07:44:08.518Z,1002.91
2017-03-03T07:45:08.498Z,1002.88
2017-03-03T07:46:08.481Z,1002.84
2017-03-03T07:47:08.459Z,1002.87
2017-03-03T07:48:08.440Z,1002.87
2017-03-03T07:49:08.419Z,1002.9
2017-03-03T07:50:08.400Z,1002.89
2017-03-03T07:51:08.379Z,1002.89
2017-03-03T07:52:08.362Z,1002.87
2017-03-03T07:53:08.342Z,1002.88
2017-03-03T07:54:08.322Z,1002.83
2017-03-03T07:55:08.308Z,1002.8
2017-03-03T07:56:08.285Z,1002.76
2017-03-03T07:57:08.264Z,1002.76
2017-03-03T07:58:08.245Z,1002.75
2017-03-03T07:59:08.227Z,1002.78
2017-03-03T08:00:08.207Z,1002.79
2017-03-03T08:01:08.187Z,1002.76
2017-03-03T08:02:08.168Z,1002.79
2017-03-03T08:03:08.150Z,1002.79
2017-03-03T08:04:08.130Z,1002.78
2017-03-03T08:05:08.113Z,1002.76
2017-03-03T08:06:08.094Z,1002.77
2017-03-03T08:07:08.075Z,1002.75
2017-03-03T08:08:08.056Z,1002.74
2017-03-03T08:09:08.037Z,1002.74
2017-03-03T08:10:08.017Z,1002.72
2017-03-03T08:11:08.002Z,1002.75
2017-03-03T08:12:07.983Z,1002.75
2017-03-03T08:13:07.963Z,1002.75
2017-03-03T08:14:07.965Z,1002.8
2017-03-03T08:15:07.926Z,1002.83
2017-03-03T08:16:07.908Z,1002.81
2017-03-03T08:17:07.888Z,1002.81
2017-03-03T08:18:07.871Z,1002.82
2017-03-03T08:19:07.852Z,1002.84
2017-03-03T08:20:07.836Z,1002.8
2017-03-03T08:21:07.817Z,1002.81
2017-03-03T08:22:07.798Z,1002.76
2017-03-03T08:23:07.779Z,1002.73
2017-03-03T08:24:07.762Z,1002.8
2017-03-03T08:25:07.743Z,1002.77
2017-03-03T08:26:07.727Z,1002.74
2017-03-03T08:27:07.709Z,1002.68
2017-03-03T08:28:07.690Z,1002.69
2017-03-03T08:29:07.676Z,1002.74
2017-03-03T08:30:07.658Z,1002.74
2017-03-03T08:31:07.641Z,1002.71
2017-03-03T08:32:07.622Z,1002.72
2017-03-03T08:33:07.606Z,1002.76
2017-03-03T08:34:07.592Z,1002.73
2017-03-03T08:35:07.573Z,1002.76
2017-03-03T08:36:07.558Z,1002.79
2017-03-03T08:37:07.542Z,1002.74
2017-03-03T08:38:07.527Z,1002.66
2017-03-03T08:39:07.511Z,1002.68
2017-03-03T08:40:07.497Z,1002.58
2017-03-03T08:41:07.482Z,1002.55
2017-03-03T08:42:07.467Z,1002.51
2017-03-03T08:43:07.454Z,1002.5
2017-03-03T08:44:07.442Z,1002.51
2017-03-03T08:45:07.428Z,1002.54
2017-03-03T08:46:07.414Z,1002.52
2017-03-03T08:47:07.401Z,1002.53
2017-03-03T08:48:07.387Z,1002.51
2017-03-03T08:49:07.374Z,1002.49
2017-03-03T08:50:07.362Z,1002.5
2017-03-03T08:51:07.349Z,1002.47
2017-03-03T08:52:07.336Z,1002.43
2017-03-03T08:53:07.323Z,1002.45
2017-03-03T08:54:07.511Z,1002.46
2017-03-03T08:55:07.297Z,1002.46
2017-03-03T08:56:07.282Z,1002.45
2017-03-03T08:57:07.270Z,1002.39
2017-03-03T08:58:07.258Z,1002.33
2017-03-03T08:59:07.243Z,1002.29
2017-03-03T09:00:07.230Z,1002.25
2017-03-03T09:01:07.217Z,1002.27
2017-03-03T09:02:07.206Z,1002.24
2017-03-03T09:03:07.202Z,1002.18
2017-03-03T09:04:07.181Z,1002.19
2017-03-03T09:05:07.166Z,1002.14
2017-03-03T09:06:07.153Z,1002.13
2017-03-03T09:07:07.140Z,1002.15
2017-03-03T09:08:07.129Z,1002.09
2017-03-03T09:09:07.116Z,1002.06
2017-03-03T09:10:07.103Z,1002.03
2017-03-03T09:11:07.090Z,1002.04
2017-03-03T09:12:07.079Z,1002.04
2017-03-03T09:13:07.067Z,1002.06
2017-03-03T09:14:07.053Z,1002.02
2017-03-03T09:15:07.041Z,1002.02
2017-03-03T09:16:07.030Z,1001.93
2017-03-03T09:17:07.019Z,1001.91
2017-03-03T09:18:07.007Z,1001.89
2017-03-03T09:19:06.997Z,1001.83
2017-03-03T09:20:06.982Z,1001.83
2017-03-03T09:21:06.967Z,1001.78
2017-03-03T09:22:06.958Z,1001.74
2017-03-03T09:23:06.944Z,1001.75
2017-03-03T09:24:06.932Z,1001.74
2017-03-03T09:25:06.919Z,1001.73
2017-03-03T09:26:06.908Z,1001.73
2017-03-03T09:27:07.045Z,1001.7
2017-03-03T09:28:06.895Z,1001.67
2017-03-03T09:29:06.869Z,1001.74
2017-03-03T09:30:06.856Z,1001.7
2017-03-03T09:31:06.844Z,1001.75
2017-03-03T09:32:06.832Z,1001.65
2017-03-03T09:33:06.818Z,1001.65
2017-03-03T09:34:06.806Z,1001.64
2017-03-03T09:35:06.793Z,1001.61
2017-03-03T09:36:06.778Z,1001.56
2017-03-03T09:37:06.768Z,1001.52
2017-03-03T09:38:06.753Z,1001.5
2017-03-03T09:39:06.744Z,1001.48
2017-03-03T09:40:06.724Z,1001.45
2017-03-03T09:41:06.712Z,1001.43
2017-03-03T09:42:06.699Z,1001.4
2017-03-03T09:43:06.686Z,1001.36
2017-03-03T09:44:06.672Z,1001.37
2017-03-03T09:45:06.658Z,1001.39
2017-03-03T09:46:06.646Z,1001.35
2017-03-03T09:47:06.632Z,1001.37
2017-03-03T09:48:06.618Z,1001.33
2017-03-03T09:49:06.604Z,1001.36
2017-03-03T09:50:06.592Z,1001.26
2017-03-03T09:51:06.587Z,1001.28
2017-03-03T09:52:06.563Z,1001.23
2017-03-03T09:53:06.553Z,1001.24
2017-03-03T09:54:06.545Z,1001.18
2017-03-03T09:55:06.526Z,1001.19
2017-03-03T09:56:06.516Z,1001.16
2017-03-03T09:57:06.499Z,1001.19
2017-03-03T09:58:06.486Z,1001.12
2017-03-03T09:59:06.473Z,1001.12
2017-03-03T10:00:06.461Z,1001.08
2017-03-03T10:01:06.447Z,1001.05
2017-03-03T10:02:06.436Z,1001.06
2017-03-03T10:03:06.422Z,1000.98
2017-03-03T10:04:06.411Z,1001
2017-03-03T10:05:06.399Z,1000.93
2017-03-03T10:06:06.386Z,1000.92
2017-03-03T10:07:06.373Z,1000.91
2017-03-03T10:08:06.361Z,1000.92
2017-03-03T10:09:06.346Z,1000.86
2017-03-03T10:10:06.336Z,1000.86
2017-03-03T10:11:06.323Z,1000.83
2017-03-03T10:12:06.311Z,1000.81
2017-03-03T10:13:06.303Z,1000.79
2017-03-03T10:14:06.285Z,1000.82
2017-03-03T10:15:06.274Z,1000.72
2017-03-03T10:16:06.262Z,1000.74
2017-03-03T10:17:06.253Z,1000.7
2017-03-03T10:18:06.238Z,1000.7
2017-03-03T10:19:06.228Z,1000.72
2017-03-03T10:20:06.215Z,1000.68
2017-03-03T10:21:06.201Z,1000.7
2017-03-03T10:22:06.189Z,1000.66
2017-03-03T10:23:06.177Z,1000.7
2017-03-03T10:24:06.168Z,1000.63
2017-03-03T10:25:06.155Z,1000.65
2017-03-03T10:26:06.143Z,1000.65
2017-03-03T10:27:06.130Z,1000.56
2017-03-03T10:28:06.120Z,1000.55
2017-03-03T10:29:06.106Z,1000.56
2017-03-03T10:30:06.145Z,1000.51
2017-03-03T10:31:06.086Z,1000.51
2017-03-03T10:32:06.072Z,1000.46
2017-03-03T10:33:06.060Z,1000.52
2017-03-03T10:34:06.051Z,1000.39
2017-03-03T10:35:06.043Z,1000.34
2017-03-03T10:36:06.028Z,1000.34
2017-03-03T10:37:06.017Z,1000.31
2017-03-03T10:38:06.005Z,1000.24
2017-03-03T10:39:06.020Z,1000.24
2017-03-03T10:40:05.987Z,1000.27
2017-03-03T10:41:05.975Z,1000.25
2017-03-03T10:42:05.960Z,1000.17
2017-03-03T10:43:05.951Z,1000.15
2017-03-03T10:44:05.941Z,1000.11
2017-03-03T10:45:05.928Z,1000.11
2017-03-03T10:46:05.916Z,1000.07
2017-03-03T10:47:05.909Z,1000.07
2017-03-03T10:48:05.895Z,1000.1
2017-03-03T10:49:05.885Z,1000.04
2017-03-03T10:50:05.872Z,999.97
2017-03-03T10:51:05.913Z,999.99
2017-03-03T10:52:05.857Z,999.91
2017-03-03T10:53:05.842Z,999.87
2017-03-03T10:54:06.029Z,999.9
2017-03-03T10:55:05.816Z,999.88
2017-03-03T10:56:05.804Z,999.88
2017-03-03T10:57:05.796Z,999.89
2017-03-03T10:58:05.786Z,999.87
2017-03-03T10:59:05.774Z,999.84
2017-03-03T11:00:05.757Z,999.8
2017-03-03T11:01:05.746Z,999.75
2017-03-03T11:02:05.737Z,999.73
2017-03-03T11:03:05.725Z,999.72
2017-03-03T11:04:05.714Z,999.69
2017-03-03T11:05:05.701Z,999.65
2017-03-03T11:06:05.689Z,999.62
2017-03-03T11:07:05.680Z,999.62
2017-03-03T11:08:05.664Z,999.66
2017-03-03T11:09:05.653Z,999.6
2017-03-03T11:10:05.643Z,999.61
2017-03-03T11:11:05.630Z,999.61
2017-03-03T11:12:05.622Z,999.57
2017-03-03T11:13:05.609Z,999.56
2017-03-03T11:14:05.596Z,999.51
2017-03-03T11:15:05.587Z,999.54
2017-03-03T11:16:05.571Z,999.48
2017-03-03T11:17:05.560Z,999.53
2017-03-03T11:18:05.547Z,999.49
2017-03-03T11:19:05.533Z,999.52
2017-03-03T11:20:05.523Z,999.47
2017-03-03T11:21:05.512Z,999.41
2017-03-03T11:22:05.498Z,999.43
2017-03-03T11:23:05.485Z,999.37
2017-03-03T11:24:05.471Z,999.39
2017-03-03T11:25:05.458Z,999.36
2017-03-03T11:26:05.450Z,999.32
2017-03-03T11:27:05.435Z,999.35
2017-03-03T11:28:05.422Z,999.32
2017-03-03T11:29:05.409Z,999.28
2017-03-03T11:30:05.396Z,999.28
2017-03-03T11:31:05.383Z,999.25
2017-03-03T11:32:05.370Z,999.24
2017-03-03T11:33:05.356Z,999.22
2017-03-03T11:34:05.343Z,999.26
2017-03-03T11:35:05.334Z,999.23
2017-03-03T11:36:05.318Z,999.19
2017-03-03T11:37:05.305Z,999.15
2017-03-03T11:38:05.293Z,999.16
2017-03-03T11:39:05.281Z,999.14
2017-03-03T11:40:05.267Z,999.16
2017-03-03T11:41:05.256Z,999.06
2017-03-03T11:42:05.245Z,999.06
2017-03-03T11:43:05.233Z,999.04
2017-03-03T11:44:05.217Z,999.01
2017-03-03T11:45:05.205Z,999.04
2017-03-03T11:46:05.193Z,999.05
2017-03-03T11:47:05.183Z,999.04
2017-03-03T11:48:05.169Z,999.03
2017-03-03T11:49:05.158Z,999.03
2017-03-03T11:50:05.150Z,998.98
2017-03-03T11:51:05.136Z,998.97
2017-03-03T11:52:05.126Z,998.94
2017-03-03T11:53:05.115Z,998.91
2017-03-03T11:54:05.105Z,998.88
2017-03-03T11:55:05.096Z,998.89
2017-03-03T11:56:05.090Z,998.85
2017-03-03T11:57:05.081Z,998.81
2017-03-03T11:58:05.076Z,998.78
2017-03-03T11:59:05.069Z,998.72
2017-03-03T12:00:05.058Z,998.72
2017-03-03T12:01:05.053Z,998.65
2017-03-03T12:02:05.045Z,998.66
2017-03-03T12:03:05.041Z,998.63
2017-03-03T12:04:05.034Z,998.58
2017-03-03T12:05:05.029Z,998.51
2017-03-03T12:06:05.023Z,998.45
2017-03-03T12:07:05.021Z,998.46
2017-03-03T12:08:05.010Z,998.46
2017-03-03T12:09:05.009Z,998.43
2017-03-03T12:10:05.002Z,998.42
2017-03-03T12:11:05.000Z,998.37